Auburn, AL

8:48 PM CDT on May 20, 2018 (GMT -0500)
Auburn-opelika-pitts

Weather History for KAUO - February, 2013

Change the Weather History Date:

Sunday, February 3, 2013

  Actual Average Record
Temperature  
Mean Temperature 49 °F -  
Max Temperature 61 °F - 78 °F (1989)
Min Temperature 36 °F - 15 °F (1979)
Degree Days  
Heating Degree Days 16    
Month to date heating degree days 61  
Since 1 July heating degree days 1092  
Moisture  
Dew Point 31 °F    
Average Humidity 56    
Maximum Humidity 87    
Minimum Humidity 25    
Precipitation  
Precipitation 0.00 in - 3.62 in (1982)
Month to date precipitation 0.01  
Year to date precipitation 2.93  
Sea Level Pressure  
Sea Level Pressure 30.10 in    
Wind  
Wind Speed 9 mph (West)    
Max Wind Speed 21 mph    
Max Gust Speed 30 mph    
Visibility 10 miles    
Events      
T = Trace of Precipitation, MM = Missing Value Source: NWS Daily Summary

Daily Weather History Graph

Daily Weather History Graph

Search for Another Location

Airport or City:

Astronomy

Feb. 03, 2013 Rise Set
Actual Time 6:34 AM CST 5:16 PM CST
Civil Twilight 6:09 AM CST 5:42 PM CST
Nautical Twilight 5:39 AM CST 6:11 PM CST
Astronomical Twilight 5:10 AM CST 6:40 PM CST
Moon 12:00 AM CST (2/3) 10:55 AM CST (2/3)
Length of Visible Light 11h 33m
Length of Day
10h 42m
Waning Gibbous, 48% of the Moon is Illuminated
Feb 3
Waning Gibbous
Feb 10
New
Feb 17
First Quarter
Feb 25
Full
Mar 4
Last Quarter

Hourly Weather History & Observations

Time (CST) Temp. Windchill Dew Point Humidity Pressure Visibility Wind Dir Wind Speed Gust Speed Precip Events Conditions
12:15 AM 44.6 °F 40.2 °F 37.4 °F 76% 30.15 in 10.0 mi WNW 8.1 mph - N/A   Scattered Clouds
12:35 AM 42.8 °F 39.3 °F 37.4 °F 81% 30.14 in 10.0 mi West 5.8 mph - N/A   Clear
12:55 AM 42.8 °F 38.6 °F 37.4 °F 81% 30.15 in 10.0 mi WNW 6.9 mph - N/A   Clear
1:15 AM 42.8 °F 38.0 °F 37.4 °F 81% 30.16 in 10.0 mi NW 8.1 mph - N/A   Clear
1:35 AM 42.8 °F 38.6 °F 35.6 °F 76% 30.15 in 10.0 mi NW 6.9 mph - N/A   Clear
1:55 AM 41.0 °F 36.4 °F 35.6 °F 81% 30.15 in 10.0 mi NW 6.9 mph - N/A   Clear
2:15 AM 39.2 °F 35.9 °F 35.6 °F 87% 30.14 in 10.0 mi WNW 4.6 mph - N/A   Clear
2:35 AM 39.2 °F 35.9 °F 33.8 °F 81% 30.14 in 10.0 mi West 4.6 mph - N/A   Clear
2:55 AM 39.2 °F 35.9 °F 33.8 °F 81% 30.14 in 10.0 mi West 4.6 mph - N/A   Clear
3:15 AM 39.2 °F 35.9 °F 33.8 °F 81% 30.14 in 10.0 mi West 4.6 mph - N/A   Clear
3:35 AM 39.2 °F 35.0 °F 33.8 °F 81% 30.14 in 10.0 mi West 5.8 mph - N/A   Clear
3:55 AM 37.4 °F 34.9 °F 33.8 °F 87% 30.13 in 10.0 mi WSW 3.5 mph - N/A   Clear
4:15 AM 37.4 °F 34.9 °F 33.8 °F 87% 30.13 in 10.0 mi West 3.5 mph - N/A   Clear
4:35 AM 37.4 °F 33.8 °F 33.8 °F 87% 30.13 in 10.0 mi West 4.6 mph - N/A   Clear
4:55 AM 37.4 °F 33.8 °F 33.8 °F 87% 30.13 in 10.0 mi SW 4.6 mph - N/A   Clear
5:15 AM 37.4 °F 33.8 °F 33.8 °F 87% 30.13 in 10.0 mi WSW 4.6 mph - N/A   Clear
5:35 AM 37.4 °F 33.8 °F 33.8 °F 87% 30.13 in 10.0 mi WSW 4.6 mph - N/A   Clear
5:55 AM 37.4 °F 33.8 °F 33.8 °F 87% 30.14 in 10.0 mi WSW 4.6 mph - N/A   Clear
6:15 AM 37.4 °F 34.9 °F 32.0 °F 81% 30.14 in 10.0 mi WSW 3.5 mph - N/A   Clear
6:35 AM 37.4 °F 34.9 °F 33.8 °F 87% 30.15 in 9.0 mi SW 3.5 mph - N/A   Clear
6:55 AM 37.4 °F 34.9 °F 33.8 °F 87% 30.15 in 10.0 mi WSW 3.5 mph - N/A   Clear
7:15 AM 37.4 °F 33.8 °F 33.8 °F 87% 30.15 in 10.0 mi SW 4.6 mph - N/A   Clear
7:35 AM 39.2 °F 34.2 °F 35.6 °F 87% 30.16 in 10.0 mi SW 6.9 mph - N/A   Clear
7:55 AM 39.2 °F 33.6 °F 35.6 °F 87% 30.16 in 10.0 mi SW 8.1 mph - N/A   Clear
8:15 AM 41.0 °F 36.4 °F 35.6 °F 81% 30.15 in 10.0 mi SW 6.9 mph - N/A   Clear
8:35 AM 42.8 °F 37.0 °F 35.6 °F 76% 30.16 in 10.0 mi SW 10.4 mph - N/A   Clear
8:55 AM 44.6 °F 39.2 °F 35.6 °F 71% 30.16 in 10.0 mi SW 10.4 mph - N/A   Clear
9:15 AM 44.6 °F 39.2 °F 35.6 °F 71% 30.15 in 10.0 mi SW 10.4 mph - N/A   Clear
9:35 AM 46.4 °F 41.9 °F 35.6 °F 66% 30.15 in 10.0 mi WSW 9.2 mph - N/A   Clear
9:56 AM 48.2 °F - 35.6 °F 62% 30.15 in 10.0 mi WSW 10.4 mph - N/A   Clear
10:15 AM 50.0 °F - 35.6 °F 58% 30.15 in 10.0 mi SW 12.7 mph 18.4 mph N/A   Clear
10:55 AM 53.6 °F - 35.6 °F 51% 30.13 in 10.0 mi West 12.7 mph 19.6 mph N/A   Clear
11:15 AM 53.6 °F - 35.6 °F 51% 30.12 in 10.0 mi West 10.4 mph 17.3 mph N/A   Clear
11:35 AM 57.2 °F - 32.0 °F 38% 30.11 in 10.0 mi WNW 17.3 mph 23.0 mph N/A   Clear
11:55 AM 57.2 °F - 30.2 °F 36% 30.09 in 10.0 mi WNW 12.7 mph 23.0 mph N/A   Clear
12:15 PM 57.2 °F - 30.2 °F 36% 30.07 in 10.0 mi West 15.0 mph 24.2 mph N/A   Clear
12:35 PM 59.0 °F - 32.0 °F 36% 30.07 in 10.0 mi West 15.0 mph 23.0 mph N/A   Clear
12:55 PM 60.8 °F - 28.4 °F 29% 30.06 in 10.0 mi West 20.7 mph 29.9 mph N/A   Clear
1:15 PM 60.8 °F - 28.4 °F 29% 30.05 in 10.0 mi West 23.0 mph 31.1 mph N/A   Clear
1:35 PM 60.8 °F - 28.4 °F 29% 30.05 in 10.0 mi WNW 21.9 mph 26.5 mph N/A   Clear
1:55 PM 60.8 °F - 28.4 °F 29% 30.04 in 10.0 mi WNW 15.0 mph 27.6 mph N/A   Clear
2:15 PM 60.8 °F - 24.8 °F 25% 30.04 in 10.0 mi West 18.4 mph 24.2 mph N/A   Clear
2:35 PM 60.8 °F - 26.6 °F 27% 30.03 in 10.0 mi West 13.8 mph 24.2 mph N/A   Clear
2:55 PM 60.8 °F - 26.6 °F 27% 30.03 in 10.0 mi WNW 18.4 mph 25.3 mph N/A   Clear
3:15 PM 60.8 °F - 26.6 °F 27% 30.03 in 10.0 mi West 12.7 mph 21.9 mph N/A   Clear
3:35 PM 60.8 °F - 24.8 °F 25% 30.04 in 10.0 mi WNW 12.7 mph 21.9 mph N/A   Clear
3:55 PM 60.8 °F - 24.8 °F 25% 30.04 in 10.0 mi WNW 11.5 mph 21.9 mph N/A   Clear
4:15 PM 59.0 °F - 24.8 °F 27% 30.05 in 10.0 mi WNW 15.0 mph 24.2 mph N/A   Clear
4:35 PM 57.2 °F - 24.8 °F 29% 30.05 in 10.0 mi West 9.2 mph 17.3 mph N/A   Clear
4:55 PM 57.2 °F - 26.6 °F 31% 30.06 in 10.0 mi West 11.5 mph 17.3 mph N/A   Clear
5:15 PM 55.4 °F - 24.8 °F 31% 30.05 in 10.0 mi WNW 12.7 mph 17.3 mph N/A   Clear
5:35 PM 55.4 °F - 24.8 °F 31% 30.05 in 10.0 mi WNW 11.5 mph - N/A   Clear
5:55 PM 53.6 °F - 24.8 °F 33% 30.06 in 10.0 mi WNW 8.1 mph - N/A   Clear
6:15 PM 53.6 °F - 24.8 °F 33% 30.06 in 10.0 mi WNW 6.9 mph - N/A   Clear
6:35 PM 51.8 °F - 24.8 °F 35% 30.07 in 10.0 mi WNW 6.9 mph - N/A   Clear
6:55 PM 51.8 °F - 26.6 °F 38% 30.07 in 10.0 mi WNW 5.8 mph - N/A   Clear
7:15 PM 50.0 °F - 26.6 °F 40% 30.08 in 10.0 mi West 5.8 mph - N/A   Clear
7:35 PM 50.0 °F - 26.6 °F 40% 30.08 in 10.0 mi WNW 6.9 mph - N/A   Clear
7:55 PM 48.2 °F - 26.6 °F 43% 30.09 in 10.0 mi NW 5.8 mph - N/A   Clear
8:15 PM 48.2 °F - 26.6 °F 43% 30.09 in 10.0 mi WNW 4.6 mph - N/A   Clear
8:35 PM 48.2 °F - 26.6 °F 43% 30.09 in 10.0 mi NW 4.6 mph - N/A   Clear
8:55 PM 48.2 °F - 26.6 °F 43% 30.09 in 10.0 mi NW 3.5 mph - N/A   Clear
9:15 PM 46.4 °F 45.2 °F 26.6 °F 46% 30.09 in 10.0 mi NW 3.5 mph - N/A   Clear
9:35 PM 46.4 °F 45.2 °F 26.6 °F 46% 30.09 in 10.0 mi WNW 3.5 mph - N/A   Clear
9:55 PM 44.6 °F 42.2 °F 26.6 °F 49% 30.09 in 10.0 mi NW 4.6 mph - N/A   Clear
10:15 PM 44.6 °F 41.4 °F 26.6 °F 49% 30.09 in 10.0 mi NNW 5.8 mph - N/A   Clear
10:35 PM 44.6 °F 40.7 °F 26.6 °F 49% 30.09 in 10.0 mi NNW 6.9 mph - N/A   Clear
10:55 PM 44.6 °F 40.2 °F 26.6 °F 49% 30.09 in 10.0 mi NNW 8.1 mph - N/A   Clear
11:15 PM 44.6 °F 39.7 °F 26.6 °F 49% 30.08 in 10.0 mi NNW 9.2 mph - N/A   Clear
11:55 PM 42.8 °F 39.3 °F 26.6 °F 53% 30.07 in 10.0 mi North 5.8 mph - N/A   Clear